Impacts TAF Board
For situational awareness. Not to be used for flight planning purposes.
IDs:

KPHL - Philadelphia Intl, PA, US

Issued at 2059 UTC 19 May 2019
Updated at 2122 UTC 19 May 2019
Potential Impact None Slight Moderate High
Time<<20/10Z 20/11Z 20/12Z 20/13Z 20/14Z 20/15Z 20/16Z 20/17Z 20/18Z 20/19Z 20/20Z 20/21Z 20/22Z>>
Type PRVL PRVL PRVL PRVL PRVL PRVL PRVL PRVL PRVL PRVL PRVL PRVL PRVL
VIS >6 >6 >6 >6 >6 >6 >6 >6 >6 >6 >6 >6 >6
CIG -- -- -- -- -- -- -- -- -- -- -- -- --
Cover SCT SCT SCT SCT SCT SCT SCT SCT SCT SCT SCT SCT SCT
FltCat VFR VFR VFR VFR VFR VFR VFR VFR VFR VFR VFR VFR VFR
WX -- -- -- -- -- -- -- -- -- -- -- -- --
WDir 220 220 220 220 250 250 250 250 250 250 250 250 250
WSpd 8 8 8 8 14 14 14 14 14 14 14 14 14
WGst -- -- -- -- 22 22 22 22 22 22 22 22 22
Raw TAF
KPHL 192059Z 1921/2024 19010G18KT P6SM SCT035
  FM200100 19008KT P6SM SCT035 WS020/23040KT
  TEMPO 2003/2006 5SM SHRA BR OVC035
  FM200800 22008KT P6SM SCT040
  FM201400 25014G22KT P6SM SCT050


METAR Board
Radar Display
Forecast Discussion
For situational awareness. Not to be used for flight planning purposes.